Time;durP1;ratioP1;P1;durP2;ratioP2;P2;SDS_P1;SDS_P2;PMS_P1;PMS_P2;Temp;Humidity;BMP_temperature;BMP_pressure;BME280_temperature;BME280_humidity;BME280_pressure;Samples;Min_cycle;Max_cycle;Signal;HPM_P1;HPM_P2
2024/01/28 00:01:17;;;;;;;;;;;4.80;99.90;;;;;;4961115;28;19947;-83
2024/01/28 00:03:42;;;;;;;;;;;4.70;99.90;;;;;;4964528;28;20036;-84
2024/01/28 00:06:08;;;;;;;;;;;4.70;99.90;;;;;;4965656;28;20033;-83
2024/01/28 00:08:33;;;;;;;;;;;4.70;99.90;;;;;;4961084;28;19957;-83
2024/01/28 00:10:59;;;;;;;;;;;4.70;99.90;;;;;;4967229;28;20026;-83
2024/01/28 00:13:25;;;;;;;;;;;4.60;99.90;;;;;;4959549;28;19943;-83
2024/01/28 00:15:52;;;;;;;;;;;4.60;99.90;;;;;;4964926;28;19953;-83
2024/01/28 00:18:18;;;;;;;;;;;4.60;99.90;;;;;;4951022;28;19949;-84
2024/01/28 00:20:44;;;;;;;;;;;4.60;99.90;;;;;;4947855;28;20118;-83
2024/01/28 00:23:09;;;;;;;;;;;4.60;99.90;;;;;;4960962;28;19955;-83
2024/01/28 00:25:35;;;;;;;;;;;4.60;99.90;;;;;;4963703;28;19946;-83
2024/01/28 00:28:00;;;;;;;;;;;4.60;99.90;;;;;;4950426;28;19989;-83
2024/01/28 00:30:31;;;;;;;;;;;4.50;99.90;;;;;;4949985;28;20420;-84
2024/01/28 00:32:58;;;;;;;;;;;4.50;99.90;;;;;;4965267;28;19954;-83
2024/01/28 00:35:23;;;;;;;;;;;4.50;99.90;;;;;;4966914;28;20468;-83
2024/01/28 00:37:49;;;;;;;;;;;4.40;99.90;;;;;;4961596;28;19954;-84
2024/01/28 00:40:15;;;;;;;;;;;4.50;99.90;;;;;;4955070;28;19953;-82
2024/01/28 00:42:40;;;;;;;;;;;4.40;99.90;;;;;;4952923;28;19961;-84
2024/01/28 00:45:06;;;;;;;;;;;4.50;99.90;;;;;;4967918;28;19955;-82
2024/01/28 00:47:31;;;;;;;;;;;4.40;99.90;;;;;;4950607;28;20142;-82
2024/01/28 00:49:57;;;;;;;;;;;4.40;99.90;;;;;;4963853;28;19950;-84
2024/01/28 00:52:22;;;;;;;;;;;4.30;99.90;;;;;;4956998;28;20424;-84
2024/01/28 00:54:48;;;;;;;;;;;4.20;99.90;;;;;;4954186;28;20016;-84
2024/01/28 00:57:14;;;;;;;;;;;4.20;99.90;;;;;;4963093;28;19985;-83
2024/01/28 00:59:39;;;;;;;;;;;4.10;99.90;;;;;;4961779;28;20009;-84
2024/01/28 01:02:05;;;;;;;;;;;3.90;99.90;;;;;;4957335;28;19987;-82
2024/01/28 01:04:30;;;;;;;;;;;3.90;99.90;;;;;;4953765;28;19954;-84
2024/01/28 01:06:56;;;;;;;;;;;3.80;99.90;;;;;;4961882;28;19949;-83
2024/01/28 01:09:21;;;;;;;;;;;3.80;99.90;;;;;;4958046;28;25057;-84
2024/01/28 01:11:47;;;;;;;;;;;3.90;99.90;;;;;;4947789;28;19963;-82
2024/01/28 01:14:12;;;;;;;;;;;4.00;99.90;;;;;;4954038;28;20453;-84
2024/01/28 01:16:38;;;;;;;;;;;4.00;99.90;;;;;;4954967;28;21098;-84
2024/01/28 01:19:03;;;;;;;;;;;4.00;99.90;;;;;;4954593;28;19958;-84
2024/01/28 01:21:29;;;;;;;;;;;4.00;99.90;;;;;;4961277;28;19996;-84
2024/01/28 01:23:54;;;;;;;;;;;4.00;99.90;;;;;;4947868;28;19954;-82
2024/01/28 01:26:20;;;;;;;;;;;3.90;99.90;;;;;;4952208;28;19956;-84
2024/01/28 01:28:45;;;;;;;;;;;3.90;99.90;;;;;;4954464;28;20034;-84
2024/01/28 01:31:12;;;;;;;;;;;3.80;99.90;;;;;;4954859;28;19996;-84
2024/01/28 01:33:37;;;;;;;;;;;3.70;99.90;;;;;;4980079;28;19956;-83
2024/01/28 01:36:04;;;;;;;;;;;3.70;99.90;;;;;;4989548;28;19965;-84
2024/01/28 01:38:30;;;;;;;;;;;3.70;99.90;;;;;;4986380;28;19963;-83
2024/01/28 01:40:55;;;;;;;;;;;3.80;99.90;;;;;;4984333;28;20018;-84
2024/01/28 01:43:21;;;;;;;;;;;3.80;99.90;;;;;;4977874;28;19954;-83
2024/01/28 01:45:47;;;;;;;;;;;3.80;99.90;;;;;;4960811;28;20376;-83
2024/01/28 01:48:13;;;;;;;;;;;3.90;99.90;;;;;;4952927;28;20028;-84
2024/01/28 01:50:39;;;;;;;;;;;4.00;99.90;;;;;;4950586;28;20370;-83
2024/01/28 01:53:05;;;;;;;;;;;4.10;99.90;;;;;;4951728;28;19956;-84
2024/01/28 01:55:34;;;;;;;;;;;4.00;99.90;;;;;;4954688;28;20006;-84
2024/01/28 01:58:00;;;;;;;;;;;4.00;99.90;;;;;;4958301;28;20121;-83
2024/01/28 02:00:26;;;;;;;;;;;4.00;99.90;;;;;;4944238;28;19948;-84
2024/01/28 02:02:51;;;;;;;;;;;4.00;99.90;;;;;;4951429;28;20056;-84
2024/01/28 02:05:17;;;;;;;;;;;4.00;99.90;;;;;;4949213;28;20036;-84
2024/01/28 02:07:42;;;;;;;;;;;4.10;99.90;;;;;;4961138;28;19948;-84
2024/01/28 02:10:09;;;;;;;;;;;4.10;99.90;;;;;;4957011;28;20416;-84
2024/01/28 02:12:35;;;;;;;;;;;4.20;99.90;;;;;;4958806;28;19996;-84
2024/01/28 02:15:04;;;;;;;;;;;4.20;99.90;;;;;;4956439;28;19950;-84
2024/01/28 02:17:29;;;;;;;;;;;4.20;99.90;;;;;;4956589;28;20409;-84
2024/01/28 02:19:55;;;;;;;;;;;4.20;99.90;;;;;;4952684;28;20081;-84
2024/01/28 02:22:20;;;;;;;;;;;4.10;99.90;;;;;;4952390;28;19960;-83
2024/01/28 02:24:46;;;;;;;;;;;4.10;99.90;;;;;;4953139;28;19952;-84
2024/01/28 02:27:11;;;;;;;;;;;4.10;99.90;;;;;;4957568;28;20387;-83
2024/01/28 02:29:37;;;;;;;;;;;4.10;99.90;;;;;;4956118;28;19944;-82
2024/01/28 02:32:03;;;;;;;;;;;4.10;99.90;;;;;;4951885;28;19976;-84
2024/01/28 02:34:29;;;;;;;;;;;4.20;99.90;;;;;;4947201;28;19963;-84
2024/01/28 02:36:54;;;;;;;;;;;4.20;99.90;;;;;;4952767;28;20022;-81
2024/01/28 02:39:20;;;;;;;;;;;4.20;99.90;;;;;;4946817;28;19955;-82
2024/01/28 02:41:45;;;;;;;;;;;4.20;99.90;;;;;;4945387;28;19954;-83
2024/01/28 02:44:11;;;;;;;;;;;4.20;99.90;;;;;;4950000;28;20011;-83
2024/01/28 02:46:36;;;;;;;;;;;4.20;99.90;;;;;;4960677;28;19948;-84
2024/01/28 02:49:02;;;;;;;;;;;4.20;99.90;;;;;;4958608;28;20206;-85
2024/01/28 02:51:27;;;;;;;;;;;4.20;99.90;;;;;;4951704;28;19960;-82
2024/01/28 02:53:53;;;;;;;;;;;4.20;99.90;;;;;;4955798;28;19953;-83
2024/01/28 02:56:18;;;;;;;;;;;4.20;99.90;;;;;;4956041;28;19959;-82
2024/01/28 02:58:44;;;;;;;;;;;4.30;99.90;;;;;;4958115;28;19953;-83
2024/01/28 03:01:09;;;;;;;;;;;4.30;99.90;;;;;;4953080;28;20202;-82
2024/01/28 03:03:35;;;;;;;;;;;4.30;99.90;;;;;;4952683;28;19942;-85
2024/01/28 03:06:00;;;;;;;;;;;4.30;99.90;;;;;;4957542;28;20025;-84
2024/01/28 03:08:26;;;;;;;;;;;4.30;99.90;;;;;;4963816;28;19946;-84
2024/01/28 03:10:51;;;;;;;;;;;4.20;99.90;;;;;;4961012;28;20008;-83
2024/01/28 03:13:17;;;;;;;;;;;4.20;99.90;;;;;;4959673;28;20662;-84
2024/01/28 03:15:43;;;;;;;;;;;4.20;99.90;;;;;;4947084;28;19947;-84
2024/01/28 03:18:09;;;;;;;;;;;4.20;99.90;;;;;;4950859;28;19934;-84
2024/01/28 03:20:34;;;;;;;;;;;4.10;99.90;;;;;;4952068;28;20050;-84
2024/01/28 03:23:00;;;;;;;;;;;4.10;99.90;;;;;;4953253;28;20113;-83
2024/01/28 03:25:25;;;;;;;;;;;4.10;99.90;;;;;;4956865;28;20439;-84
2024/01/28 03:27:52;;;;;;;;;;;4.00;99.90;;;;;;4951030;28;20050;-84
2024/01/28 03:30:18;;;;;;;;;;;4.00;99.90;;;;;;4956495;28;20040;-84
2024/01/28 03:32:43;;;;;;;;;;;4.10;99.90;;;;;;4950627;28;20071;-84
2024/01/28 03:35:09;;;;;;;;;;;4.10;99.90;;;;;;4942107;28;20480;-83
2024/01/28 03:37:35;;;;;;;;;;;4.00;99.90;;;;;;4948164;28;20408;-84
2024/01/28 03:40:01;;;;;;;;;;;4.10;99.90;;;;;;4956414;28;19945;-84
2024/01/28 03:42:26;;;;;;;;;;;4.10;99.90;;;;;;4956693;28;20064;-82
2024/01/28 03:44:52;;;;;;;;;;;4.10;99.90;;;;;;4948611;28;19943;-84
2024/01/28 03:47:17;;;;;;;;;;;4.10;99.90;;;;;;4954614;28;19947;-83
2024/01/28 03:49:43;;;;;;;;;;;4.10;99.90;;;;;;4957290;28;20071;-83
2024/01/28 03:52:08;;;;;;;;;;;4.00;99.90;;;;;;4956880;28;20413;-83
2024/01/28 03:54:34;;;;;;;;;;;4.00;99.90;;;;;;4963502;28;19947;-83
2024/01/28 03:56:59;;;;;;;;;;;3.90;99.90;;;;;;4957483;28;19955;-83
2024/01/28 03:59:25;;;;;;;;;;;3.90;99.90;;;;;;4961238;28;19939;-82
2024/01/28 04:01:51;;;;;;;;;;;3.80;99.90;;;;;;4979444;28;20164;-84
2024/01/28 04:04:16;;;;;;;;;;;3.80;99.90;;;;;;4977809;28;20182;-83
2024/01/28 04:06:43;;;;;;;;;;;3.80;99.90;;;;;;4992540;28;19944;-82
2024/01/28 04:09:09;;;;;;;;;;;3.70;99.90;;;;;;4978590;28;19938;-81
2024/01/28 04:11:35;;;;;;;;;;;3.70;99.90;;;;;;4963387;28;20018;-83
2024/01/28 04:14:00;;;;;;;;;;;3.60;99.90;;;;;;4959495;28;20346;-83
2024/01/28 04:16:26;;;;;;;;;;;3.30;99.90;;;;;;4965117;28;20245;-82
2024/01/28 04:18:52;;;;;;;;;;;3.20;99.90;;;;;;4962084;28;19942;-82
2024/01/28 04:21:17;;;;;;;;;;;3.20;99.90;;;;;;4944340;28;19954;-82
2024/01/28 04:23:43;;;;;;;;;;;3.10;99.90;;;;;;4945079;28;21625;-83
2024/01/28 04:26:09;;;;;;;;;;;2.90;99.90;;;;;;4956997;28;19945;-82
2024/01/28 04:28:35;;;;;;;;;;;2.90;99.90;;;;;;4954533;28;20375;-84
2024/01/28 04:31:01;;;;;;;;;;;2.80;99.90;;;;;;4957396;28;19980;-81
2024/01/28 04:33:28;;;;;;;;;;;2.70;99.90;;;;;;4954368;28;20562;-82
2024/01/28 04:35:54;;;;;;;;;;;2.80;99.90;;;;;;4950631;28;19952;-83
2024/01/28 04:38:19;;;;;;;;;;;2.80;99.90;;;;;;4956173;28;19997;-83
2024/01/28 04:40:45;;;;;;;;;;;2.80;99.90;;;;;;4952432;28;19991;-84
2024/01/28 04:43:10;;;;;;;;;;;2.70;99.90;;;;;;4956804;28;19971;-82
2024/01/28 04:45:36;;;;;;;;;;;2.70;99.90;;;;;;4950973;28;20642;-82
2024/01/28 04:48:01;;;;;;;;;;;2.60;99.90;;;;;;4955460;28;20302;-83
2024/01/28 04:50:27;;;;;;;;;;;2.60;99.90;;;;;;4950636;28;19942;-82
2024/01/28 04:52:52;;;;;;;;;;;2.60;99.90;;;;;;4946088;28;19947;-82
2024/01/28 04:55:18;;;;;;;;;;;2.50;99.90;;;;;;4950646;28;19942;-84
2024/01/28 04:57:44;;;;;;;;;;;2.40;99.90;;;;;;4956304;28;19949;-83
2024/01/28 05:00:10;;;;;;;;;;;2.40;99.90;;;;;;4951160;28;20600;-83
2024/01/28 05:02:36;;;;;;;;;;;2.50;99.90;;;;;;4958224;28;20430;-83
2024/01/28 05:05:02;;;;;;;;;;;2.40;99.90;;;;;;4958238;28;19941;-83
2024/01/28 05:07:27;;;;;;;;;;;2.40;99.90;;;;;;4955319;28;19949;-83
2024/01/28 05:09:53;;;;;;;;;;;2.40;99.90;;;;;;4960366;28;19953;-83
2024/01/28 05:12:18;;;;;;;;;;;2.20;99.90;;;;;;4961641;28;19941;-83
2024/01/28 05:14:44;;;;;;;;;;;2.20;99.90;;;;;;4954987;28;19957;-83
2024/01/28 05:17:10;;;;;;;;;;;2.10;99.90;;;;;;4946482;28;20317;-83
2024/01/28 05:19:36;;;;;;;;;;;2.10;99.90;;;;;;4948956;28;20425;-83
2024/01/28 05:22:01;;;;;;;;;;;2.10;99.90;;;;;;4951970;28;20373;-84
2024/01/28 05:24:27;;;;;;;;;;;2.00;99.90;;;;;;4949325;28;20168;-83
2024/01/28 05:26:52;;;;;;;;;;;2.00;99.90;;;;;;4952969;28;20067;-83
2024/01/28 05:29:18;;;;;;;;;;;2.10;99.90;;;;;;4959669;28;20418;-83
2024/01/28 05:31:43;;;;;;;;;;;2.00;99.90;;;;;;4958192;28;20068;-83
2024/01/28 05:34:10;;;;;;;;;;;2.00;99.90;;;;;;4966524;28;20335;-83
2024/01/28 05:36:35;;;;;;;;;;;2.00;99.90;;;;;;4963709;28;19963;-83
2024/01/28 05:39:01;;;;;;;;;;;1.90;99.90;;;;;;4965569;28;19943;-84
2024/01/28 05:41:26;;;;;;;;;;;1.90;99.90;;;;;;4964823;28;20450;-83
2024/01/28 05:43:52;;;;;;;;;;;1.80;99.90;;;;;;4962737;28;19951;-83
2024/01/28 05:46:18;;;;;;;;;;;1.60;99.90;;;;;;4958809;28;20224;-84
2024/01/28 05:48:43;;;;;;;;;;;1.50;99.90;;;;;;4959866;28;19956;-84
2024/01/28 05:51:09;;;;;;;;;;;1.50;99.90;;;;;;4955628;28;19956;-83
2024/01/28 05:53:34;;;;;;;;;;;1.50;99.90;;;;;;4950729;28;20395;-85
2024/01/28 05:56:00;;;;;;;;;;;1.60;99.90;;;;;;4945191;28;20010;-84
2024/01/28 05:58:25;;;;;;;;;;;1.60;99.90;;;;;;4949744;28;19999;-82
2024/01/28 06:00:51;;;;;;;;;;;1.40;99.90;;;;;;4946731;28;19940;-82
2024/01/28 06:03:16;;;;;;;;;;;1.40;99.90;;;;;;4958069;28;19958;-84
2024/01/28 06:05:42;;;;;;;;;;;1.50;99.90;;;;;;4956312;28;19945;-84
2024/01/28 06:08:08;;;;;;;;;;;1.50;99.90;;;;;;4958405;28;19949;-84
2024/01/28 06:10:33;;;;;;;;;;;1.60;99.90;;;;;;4962700;28;19954;-84
2024/01/28 06:12:59;;;;;;;;;;;1.70;99.90;;;;;;4956758;28;20333;-84
2024/01/28 06:15:24;;;;;;;;;;;1.70;99.90;;;;;;4947622;28;19988;-84
2024/01/28 06:17:50;;;;;;;;;;;1.90;99.90;;;;;;4948098;28;20058;-84
2024/01/28 06:20:16;;;;;;;;;;;1.90;99.90;;;;;;4956830;28;20338;-83
2024/01/28 06:22:42;;;;;;;;;;;1.80;99.90;;;;;;4952125;28;19961;-83
2024/01/28 06:25:07;;;;;;;;;;;1.90;99.90;;;;;;4945412;28;20279;-83
2024/01/28 06:27:33;;;;;;;;;;;2.00;99.90;;;;;;4956327;28;20424;-83
2024/01/28 06:29:59;;;;;;;;;;;2.10;99.90;;;;;;4986490;28;19979;-84
2024/01/28 06:32:24;;;;;;;;;;;2.10;99.90;;;;;;4979965;28;20053;-84
2024/01/28 06:34:50;;;;;;;;;;;2.20;99.90;;;;;;4989108;28;19942;-83
2024/01/28 06:37:16;;;;;;;;;;;2.20;99.90;;;;;;4987155;28;19945;-83
2024/01/28 06:39:42;;;;;;;;;;;2.30;99.90;;;;;;4964682;28;19963;-83
2024/01/28 06:42:08;;;;;;;;;;;2.30;99.90;;;;;;4961240;28;20046;-83
2024/01/28 06:44:33;;;;;;;;;;;2.40;99.90;;;;;;4958605;28;20466;-83
2024/01/28 06:46:59;;;;;;;;;;;2.40;99.90;;;;;;4959230;28;20045;-84
2024/01/28 06:49:25;;;;;;;;;;;2.50;99.90;;;;;;4965596;28;19940;-83
2024/01/28 06:51:55;;;;;;;;;;;2.50;99.90;;;;;;4959505;28;19969;-82
2024/01/28 06:54:21;;;;;;;;;;;2.60;99.90;;;;;;4960253;28;20344;-84
2024/01/28 06:56:48;;;;;;;;;;;2.70;99.90;;;;;;4954553;28;19943;-84
2024/01/28 06:59:14;;;;;;;;;;;2.80;99.90;;;;;;4955523;28;19955;-84
2024/01/28 07:01:39;;;;;;;;;;;2.90;99.90;;;;;;4949928;28;19952;-82
2024/01/28 07:04:05;;;;;;;;;;;2.90;99.90;;;;;;4952194;28;19945;-84
2024/01/28 07:06:31;;;;;;;;;;;3.10;99.90;;;;;;4953309;28;20380;-84
2024/01/28 07:08:57;;;;;;;;;;;3.20;99.90;;;;;;4959812;28;19996;-84
2024/01/28 07:11:22;;;;;;;;;;;3.30;99.90;;;;;;4956658;28;20069;-84
2024/01/28 07:13:48;;;;;;;;;;;3.40;99.90;;;;;;4960603;28;20035;-84
2024/01/28 07:16:14;;;;;;;;;;;3.40;99.90;;;;;;4956014;28;19956;-84
2024/01/28 07:18:39;;;;;;;;;;;3.60;99.90;;;;;;4957864;28;19936;-84
2024/01/28 07:21:05;;;;;;;;;;;3.60;99.90;;;;;;4952463;28;20339;-85
2024/01/28 07:23:31;;;;;;;;;;;3.60;99.90;;;;;;4958371;28;19994;-84
2024/01/28 07:25:56;;;;;;;;;;;3.70;99.90;;;;;;4956629;28;19992;-84
2024/01/28 07:28:22;;;;;;;;;;;3.70;99.90;;;;;;4958861;28;19960;-84
2024/01/28 07:30:47;;;;;;;;;;;3.70;99.90;;;;;;4953564;28;19964;-84
2024/01/28 07:33:15;;;;;;;;;;;3.80;99.90;;;;;;4935809;28;20040;-83
2024/01/28 07:35:41;;;;;;;;;;;3.70;99.90;;;;;;4939741;28;20016;-84
2024/01/28 07:38:08;;;;;;;;;;;3.80;99.90;;;;;;4933456;28;20242;-84
2024/01/28 07:40:34;;;;;;;;;;;3.80;99.90;;;;;;4937692;28;20433;-84
2024/01/28 07:42:59;;;;;;;;;;;3.70;99.90;;;;;;4941486;28;19952;-83
2024/01/28 07:45:25;;;;;;;;;;;3.80;99.90;;;;;;4934475;28;19943;-84
2024/01/28 07:47:51;;;;;;;;;;;4.00;99.90;;;;;;4943282;28;19972;-84
2024/01/28 07:50:17;;;;;;;;;;;4.10;99.90;;;;;;4933090;28;19949;-83
2024/01/28 07:52:46;;;;;;;;;;;4.10;99.90;;;;;;4940771;28;19945;-83
2024/01/28 07:55:12;;;;;;;;;;;4.20;99.90;;;;;;4935483;28;19940;-84
2024/01/28 07:57:37;;;;;;;;;;;4.20;99.90;;;;;;4944037;28;19950;-84
2024/01/28 08:00:04;;;;;;;;;;;4.30;99.90;;;;;;4941412;28;20240;-84
2024/01/28 08:02:30;;;;;;;;;;;4.30;99.90;;;;;;4940605;28;20445;-84
2024/01/28 08:04:56;;;;;;;;;;;4.30;99.90;;;;;;4939569;28;20050;-84
2024/01/28 08:07:21;;;;;;;;;;;4.30;99.90;;;;;;4928387;28;20010;-84
2024/01/28 08:09:47;;;;;;;;;;;4.40;99.90;;;;;;4931422;28;20173;-84
2024/01/28 08:12:12;;;;;;;;;;;4.40;99.90;;;;;;4931649;28;19963;-83
2024/01/28 08:14:38;;;;;;;;;;;4.50;99.90;;;;;;4936819;28;19982;-84
2024/01/28 08:17:03;;;;;;;;;;;4.60;99.90;;;;;;4933052;28;19995;-84
2024/01/28 08:19:30;;;;;;;;;;;4.70;99.90;;;;;;4933958;28;20345;-83
2024/01/28 08:21:55;;;;;;;;;;;4.70;99.90;;;;;;4921767;28;19954;-84
2024/01/28 08:24:21;;;;;;;;;;;4.80;99.90;;;;;;4938377;28;20402;-84
2024/01/28 08:26:46;;;;;;;;;;;4.80;99.90;;;;;;4934512;28;20295;-84
2024/01/28 08:29:12;;;;;;;;;;;4.80;99.90;;;;;;4937085;28;20038;-83
2024/01/28 08:31:37;;;;;;;;;;;4.90;99.90;;;;;;4933357;28;19995;-84
2024/01/28 08:34:03;;;;;;;;;;;4.90;99.90;;;;;;4958732;28;19949;-83
2024/01/28 08:36:29;;;;;;;;;;;5.00;99.90;;;;;;4955088;28;20046;-83
2024/01/28 08:38:55;;;;;;;;;;;5.10;99.90;;;;;;4956228;28;20019;-83
2024/01/28 08:41:21;;;;;;;;;;;5.20;99.90;;;;;;4962312;28;20056;-83
2024/01/28 08:43:47;;;;;;;;;;;5.30;99.90;;;;;;4960056;28;19948;-83
2024/01/28 08:46:12;;;;;;;;;;;5.40;99.90;;;;;;4953583;28;20404;-83
2024/01/28 08:48:38;;;;;;;;;;;5.50;99.90;;;;;;4953397;28;20125;-84
2024/01/28 08:51:03;;;;;;;;;;;5.50;99.90;;;;;;4949492;28;19957;-84
2024/01/28 08:53:34;;;;;;;;;;;5.60;99.90;;;;;;4955247;28;20094;-83
2024/01/28 08:56:00;;;;;;;;;;;5.70;99.90;;;;;;4962212;28;21370;-84
2024/01/28 08:58:26;;;;;;;;;;;5.70;99.90;;;;;;4985019;28;20197;-83
2024/01/28 09:00:51;;;;;;;;;;;5.80;99.90;;;;;;4984242;28;19979;-83
2024/01/28 09:03:17;;;;;;;;;;;5.80;99.90;;;;;;4983449;28;19985;-84
2024/01/28 09:05:42;;;;;;;;;;;5.80;99.90;;;;;;4978872;28;20010;-83
2024/01/28 09:08:08;;;;;;;;;;;5.90;99.90;;;;;;4974402;28;19959;-83
2024/01/28 09:10:33;;;;;;;;;;;6.00;99.90;;;;;;4954998;28;20437;-82
2024/01/28 09:12:59;;;;;;;;;;;6.00;99.90;;;;;;4959179;28;19968;-83
2024/01/28 09:15:24;;;;;;;;;;;6.00;99.90;;;;;;4956036;28;19953;-82
2024/01/28 09:17:50;;;;;;;;;;;6.10;99.90;;;;;;4958880;28;19995;-81
2024/01/28 09:20:16;;;;;;;;;;;6.10;99.90;;;;;;4954511;28;20365;-84
2024/01/28 09:22:41;;;;;;;;;;;6.30;99.90;;;;;;4960720;28;20032;-84
2024/01/28 09:25:07;;;;;;;;;;;6.40;99.90;;;;;;4955181;28;20472;-83
2024/01/28 09:27:32;;;;;;;;;;;6.50;99.90;;;;;;4958696;28;20475;-84
2024/01/28 09:29:58;;;;;;;;;;;6.60;99.90;;;;;;4953635;28;19945;-83
2024/01/28 09:32:24;;;;;;;;;;;6.80;99.90;;;;;;4955220;28;19971;-83
2024/01/28 09:34:51;;;;;;;;;;;6.90;99.90;;;;;;4953264;28;20153;-83
2024/01/28 09:37:18;;;;;;;;;;;7.20;99.90;;;;;;4948121;28;19942;-83
2024/01/28 09:39:45;;;;;;;;;;;7.40;99.90;;;;;;4958573;28;19965;-84
2024/01/28 09:42:16;;;;;;;;;;;7.40;99.90;;;;;;4962969;28;19968;-84
2024/01/28 09:44:42;;;;;;;;;;;7.50;99.90;;;;;;4957035;28;20400;-83
2024/01/28 09:47:08;;;;;;;;;;;7.70;99.90;;;;;;4958700;28;20014;-81
2024/01/28 09:49:41;;;;;;;;;;;7.80;99.90;;;;;;4961818;28;19951;-84
2024/01/28 09:52:08;;;;;;;;;;;7.90;99.90;;;;;;4968587;28;19954;-82
2024/01/28 09:54:33;;;;;;;;;;;8.30;99.90;;;;;;4964527;28;20044;-82
2024/01/28 09:57:00;;;;;;;;;;;8.50;99.90;;;;;;4961790;28;20308;-82
2024/01/28 09:59:26;;;;;;;;;;;8.80;99.90;;;;;;4951433;28;20401;-82
2024/01/28 10:01:52;;;;;;;;;;;9.00;99.90;;;;;;4957313;28;19979;-83
2024/01/28 10:04:18;;;;;;;;;;;9.40;99.90;;;;;;4966131;28;19943;-83
2024/01/28 10:06:46;;;;;;;;;;;10.20;99.90;;;;;;4965519;28;19963;-82
2024/01/28 10:09:11;;;;;;;;;;;10.50;99.90;;;;;;4954068;28;20348;-83
2024/01/28 10:11:37;;;;;;;;;;;11.40;99.90;;;;;;4961063;28;19958;-83
2024/01/28 10:14:02;;;;;;;;;;;12.30;99.90;;;;;;4961399;28;19987;-83
2024/01/28 10:16:32;;;;;;;;;;;12.90;99.90;;;;;;4954276;28;19967;-83
2024/01/28 10:18:57;;;;;;;;;;;13.10;99.90;;;;;;4945310;28;20007;-83
2024/01/28 10:21:24;;;;;;;;;;;13.60;99.90;;;;;;4948238;28;20425;-83
2024/01/28 10:23:50;;;;;;;;;;;13.50;99.90;;;;;;4948131;28;19986;-82
2024/01/28 10:26:16;;;;;;;;;;;13.50;99.90;;;;;;4959662;28;20279;-82
2024/01/28 10:28:41;;;;;;;;;;;13.70;99.90;;;;;;4960472;28;20380;-84
2024/01/28 10:31:07;;;;;;;;;;;13.70;99.90;;;;;;4954004;28;19946;-84
2024/01/28 10:33:32;;;;;;;;;;;14.20;99.90;;;;;;4959177;28;19983;-84
2024/01/28 10:36:01;;;;;;;;;;;14.30;99.90;;;;;;4964758;28;19948;-83
2024/01/28 10:38:27;;;;;;;;;;;14.40;99.90;;;;;;4959718;28;19950;-84
2024/01/28 10:40:53;;;;;;;;;;;14.40;99.90;;;;;;4955803;28;19953;-83
2024/01/28 10:43:22;;;;;;;;;;;15.00;99.00;;;;;;4953581;28;20342;-84
2024/01/28 10:45:51;;;;;;;;;;;15.20;98.30;;;;;;4956668;28;20400;-83
2024/01/28 10:48:17;;;;;;;;;;;15.90;91.70;;;;;;4950674;28;19978;-84
2024/01/28 10:50:43;;;;;;;;;;;16.00;90.00;;;;;;4949947;28;19947;-83
2024/01/28 10:53:08;;;;;;;;;;;16.20;83.20;;;;;;4951749;28;20507;-83
2024/01/28 10:55:34;;;;;;;;;;;15.40;91.10;;;;;;4956083;28;19940;-84
2024/01/28 10:58:00;;;;;;;;;;;15.00;94.40;;;;;;4961006;28;20356;-83
2024/01/28 11:00:27;;;;;;;;;;;14.60;98.90;;;;;;4952829;28;20351;-83
2024/01/28 11:02:56;;;;;;;;;;;13.70;99.90;;;;;;4958057;28;19948;-82
2024/01/28 11:05:22;;;;;;;;;;;13.10;99.90;;;;;;4962064;28;20416;-82
2024/01/28 11:07:49;;;;;;;;;;;13.60;99.90;;;;;;4958204;28;19948;-83
2024/01/28 11:10:15;;;;;;;;;;;14.20;99.90;;;;;;4953960;28;20061;-83
2024/01/28 11:12:40;;;;;;;;;;;14.10;99.90;;;;;;4950692;28;19951;-83
2024/01/28 11:15:11;;;;;;;;;;;14.20;99.90;;;;;;4953384;28;20150;-83
2024/01/28 11:17:37;;;;;;;;;;;15.00;99.90;;;;;;4952963;28;19951;-83
2024/01/28 11:20:22;;;;;;;;;;;15.50;94.70;;;;;;4948906;28;19980;-83
2024/01/28 11:22:50;;;;;;;;;;;14.80;98.80;;;;;;4944616;28;20015;-84
2024/01/28 11:25:17;;;;;;;;;;;14.10;99.90;;;;;;4945946;28;19971;-83
2024/01/28 11:27:43;;;;;;;;;;;13.50;99.90;;;;;;4952348;28;20224;-83
2024/01/28 11:30:10;;;;;;;;;;;13.20;99.90;;;;;;4978122;28;20003;-83
2024/01/28 11:32:36;;;;;;;;;;;13.00;99.90;;;;;;4984737;28;19958;-83
2024/01/28 11:35:02;;;;;;;;;;;13.20;99.90;;;;;;4985434;28;20806;-84
2024/01/28 11:37:28;;;;;;;;;;;13.60;99.90;;;;;;4988060;28;19973;-84
2024/01/28 11:39:58;;;;;;;;;;;13.40;99.90;;;;;;4980784;28;20318;-83
2024/01/28 11:42:23;;;;;;;;;;;13.00;99.90;;;;;;4962127;28;19951;-83
2024/01/28 11:44:49;;;;;;;;;;;12.50;99.90;;;;;;4957567;28;19963;-83
2024/01/28 11:47:17;;;;;;;;;;;12.00;99.90;;;;;;4958893;28;19956;-83
2024/01/28 11:49:43;;;;;;;;;;;11.60;99.90;;;;;;4957373;28;19960;-84
2024/01/28 11:52:09;;;;;;;;;;;11.10;99.90;;;;;;4952254;28;19947;-83
2024/01/28 11:54:34;;;;;;;;;;;10.60;99.90;;;;;;4961005;28;20306;-83
2024/01/28 11:57:00;;;;;;;;;;;10.40;99.90;;;;;;4960102;28;19966;-83
2024/01/28 11:59:25;;;;;;;;;;;10.20;99.90;;;;;;4960483;28;20030;-83
2024/01/28 12:01:52;;;;;;;;;;;10.30;99.90;;;;;;4959117;28;19950;-82
2024/01/28 12:04:19;;;;;;;;;;;10.30;99.90;;;;;;4947679;28;19956;-83
2024/01/28 12:06:44;;;;;;;;;;;10.30;99.90;;;;;;4956196;28;20648;-84
2024/01/28 12:09:10;;;;;;;;;;;10.40;99.90;;;;;;4959518;28;20181;-84
2024/01/28 12:11:36;;;;;;;;;;;10.60;99.90;;;;;;4960826;28;20059;-82
2024/01/28 12:14:01;;;;;;;;;;;11.00;99.90;;;;;;4956240;28;19943;-84
2024/01/28 12:16:27;;;;;;;;;;;11.90;99.90;;;;;;4948203;28;19957;-84
2024/01/28 12:18:53;;;;;;;;;;;12.80;99.90;;;;;;4953191;28;20608;-85
2024/01/28 12:21:19;;;;;;;;;;;13.50;99.90;;;;;;4951413;28;20053;-84
2024/01/28 12:23:46;;;;;;;;;;;13.90;99.90;;;;;;4958917;28;19952;-84
2024/01/28 12:26:12;;;;;;;;;;;13.60;99.90;;;;;;4954790;28;19947;-85
2024/01/28 12:28:38;;;;;;;;;;;13.40;99.90;;;;;;4951167;28;19965;-84
2024/01/28 12:31:04;;;;;;;;;;;13.20;99.90;;;;;;4951404;28;19945;-82
2024/01/28 12:33:31;;;;;;;;;;;13.20;99.90;;;;;;4936576;28;19958;-84
2024/01/28 12:35:56;;;;;;;;;;;13.60;99.90;;;;;;4935508;28;19952;-84
2024/01/28 12:38:22;;;;;;;;;;;14.40;99.90;;;;;;4941177;28;19967;-84
2024/01/28 12:40:47;;;;;;;;;;;15.00;99.90;;;;;;4943006;28;20280;-83
2024/01/28 12:43:13;;;;;;;;;;;15.50;97.60;;;;;;4932648;28;19943;-85
2024/01/28 12:45:38;;;;;;;;;;;15.20;97.20;;;;;;4935354;28;19960;-84
2024/01/28 12:48:04;;;;;;;;;;;14.80;99.90;;;;;;4933242;28;19972;-84
2024/01/28 12:50:30;;;;;;;;;;;15.10;99.90;;;;;;4933746;28;19967;-85
2024/01/28 12:52:55;;;;;;;;;;;15.80;95.30;;;;;;4934349;28;19949;-84
2024/01/28 12:55:22;;;;;;;;;;;16.50;84.50;;;;;;4948269;28;22175;-84
2024/01/28 12:57:48;;;;;;;;;;;16.90;81.90;;;;;;4937573;28;19974;-84
2024/01/28 13:00:16;;;;;;;;;;;17.40;72.20;;;;;;4935267;28;19953;-84
2024/01/28 13:02:42;;;;;;;;;;;17.80;68.80;;;;;;4938525;28;19965;-84
2024/01/28 13:05:08;;;;;;;;;;;17.80;68.90;;;;;;4934514;28;20011;-84
2024/01/28 13:07:34;;;;;;;;;;;17.60;66.50;;;;;;4940438;28;20491;-84
2024/01/28 13:09:59;;;;;;;;;;;18.00;63.80;;;;;;4940509;28;19956;-84
2024/01/28 13:12:26;;;;;;;;;;;18.40;58.70;;;;;;4933796;28;19958;-84
2024/01/28 13:14:52;;;;;;;;;;;18.50;58.40;;;;;;4913674;28;20805;-84
2024/01/28 13:17:18;;;;;;;;;;;19.10;58.00;;;;;;4919167;28;20215;-83
2024/01/28 13:19:43;;;;;;;;;;;19.50;56.20;;;;;;4932113;28;20052;-84
2024/01/28 13:22:09;;;;;;;;;;;19.10;54.10;;;;;;4925003;28;19946;-84
2024/01/28 13:24:35;;;;;;;;;;;18.70;54.60;;;;;;4932759;28;19948;-83
2024/01/28 13:27:01;;;;;;;;;;;17.70;61.20;;;;;;4930732;28;19959;-84
2024/01/28 13:29:28;;;;;;;;;;;16.60;68.70;;;;;;4942819;28;19944;-83
2024/01/28 13:31:53;;;;;;;;;;;15.50;88.10;;;;;;4942867;28;20000;-83
2024/01/28 13:34:19;;;;;;;;;;;14.50;96.70;;;;;;4951023;28;20040;-83
2024/01/28 13:36:45;;;;;;;;;;;14.10;99.90;;;;;;4950493;28;19960;-83
2024/01/28 13:39:11;;;;;;;;;;;14.40;99.90;;;;;;4953173;28;19940;-83
2024/01/28 13:41:36;;;;;;;;;;;14.70;99.90;;;;;;4954402;28;19957;-83
2024/01/28 13:44:02;;;;;;;;;;;14.40;99.90;;;;;;4946990;28;19988;-83
2024/01/28 13:46:27;;;;;;;;;;;13.80;99.90;;;;;;4948181;28;20476;-83
2024/01/28 13:48:53;;;;;;;;;;;13.30;99.90;;;;;;4951345;28;20357;-83
2024/01/28 13:51:18;;;;;;;;;;;13.00;99.90;;;;;;4950093;28;19962;-82
2024/01/28 13:53:44;;;;;;;;;;;12.70;99.90;;;;;;4950360;28;20138;-83
2024/01/28 13:56:09;;;;;;;;;;;12.70;99.90;;;;;;4957533;28;25151;-82
2024/01/28 13:58:36;;;;;;;;;;;12.90;99.90;;;;;;4955477;28;20379;-82
2024/01/28 14:01:01;;;;;;;;;;;13.40;99.90;;;;;;4956711;28;20050;-83
2024/01/28 14:03:27;;;;;;;;;;;14.50;99.90;;;;;;4956001;28;20034;-82
2024/01/28 14:05:52;;;;;;;;;;;16.00;97.50;;;;;;4953418;28;20281;-83
2024/01/28 14:08:18;;;;;;;;;;;17.20;79.80;;;;;;4965966;28;19952;-83
2024/01/28 14:10:43;;;;;;;;;;;18.70;64.50;;;;;;4964056;28;19958;-83
2024/01/28 14:13:09;;;;;;;;;;;19.20;56.80;;;;;;4974931;28;19957;-82
2024/01/28 14:15:37;;;;;;;;;;;19.10;59.40;;;;;;4967624;28;19952;-83
2024/01/28 14:18:04;;;;;;;;;;;19.50;55.80;;;;;;4965488;28;20413;-83